Robertsdale, Indiana
Current Conditions -  °F | °C
As of 4:45 PM on Monday 20 Oct 2014 (Local Time) from KGYY Reporting Station
Broken Clouds Broken Clouds  
Wind Chill: 57°   Ceiling: 4200
Heat Index: 57°   Visibility: 10mi
Dew Point: 50°   Wind: 10mph
Humidity: 77%   Direction: 20°NNE
Pressure: 29.9"   Gusts: NA
Location:  41.6768°N, 87.5007°W
Report Text: KGYY 202145Z 02009KT 10SM BKN042 BKN070 14/10 A2990
Loading
Personal Weather Stations






























Interactive Weather Map
Tropical Storm Tracking
New forecast layout! Learn more

10-Day Weather Forecast

Advertisements
Track Severe Weather on mobile